Terminal Aerodrome Forecast
Issued by NWS

Home | Current Version | Previous Version | Text Only | Print | Product List | Glossary On
Versions: 1 2 3 4 5 6 7 8 9 10 11 12 13 14 15
008
FTUS44 KEPZ 210536
TAFDMN
TAF
KDMN 210536Z 2106/2206 25012KT 6SM -SHRA SCT035 OVC040
     FM210900 24014G25KT 6SM -SHRA SCT015 BKN040 OVC100
     FM211200 26025G36KT P6SM VCSH BKN050 OVC100
     FM211900 28038G50KT P6SM BKN050
     FM220000 28028G36KT P6SM SCT050=

USA.gov is the U.S. government's official web portal to all federal, state and local government web resources and services.